»·PEaware :: N427LJ KBUR-KLAS

N427LJ :: KBUR-KLAS

FLIGHT INFORMATION

Flight Status: Arrived
Operator: Privately registered:
United States
More flights under this callsign
Pilot: Anonymous 27948 (27948)
Aircraft: CESSNA 172 SKYHAWK
(C172)
More flights by this aircraft type
Origin: KBUR Bob Hope-Burbank
United States
Destination: KLAS McCarran Intl
United States
More flights between these airports :: More routes between these airports
Route: VNY3 DAG CRESO4
File this flight plan on PilotEdge
Remarks: I-5 RATING
Altitude:
(Current/Filed)
11,000ft
Speed:
(Current/Filed)
120kts
Departed: 02-Aug-20 11:07 AM
Arrived: 02-Aug-20 12:59 PM
Distance/Time
Traveled:
193nm/1:52
Distance/Time
To Go:
Arrived

Flight Plot

Page will automatically refresh every two minutes.

Flight plan parsing failed; only flown route is shown


Map Options




Map Legend


Flown Route
Filed Route
Departure Airport
Arrival Airport
Navaid (VOR, NDB)
Fix

Horizontal Profiles

Position Reports

Time Latitude Longitude Heading Altitude Ground
Speed
02-Aug-20 10:45 34.200215 -118.358845 258 721ft 0kts
02-Aug-20 10:46 34.200215 -118.358845 258 721ft 0kts
02-Aug-20 10:47 34.200215 -118.358845 258 721ft 0kts
02-Aug-20 10:48 34.200215 -118.358845 258 721ft 0kts
02-Aug-20 10:49 34.200215 -118.358845 258 721ft 0kts
02-Aug-20 10:50 34.200215 -118.358845 258 721ft 0kts
02-Aug-20 10:51 34.200215 -118.358845 258 721ft 0kts
02-Aug-20 10:52 34.200215 -118.358845 258 721ft 0kts
02-Aug-20 10:53 34.200215 -118.358845 258 721ft 0kts
02-Aug-20 10:54 34.200215 -118.358845 258 721ft 0kts
02-Aug-20 10:55 34.200215 -118.358845 258 721ft 0kts
02-Aug-20 10:56 34.200215 -118.358845 258 721ft 0kts
02-Aug-20 10:57 34.200215 -118.358845 258 721ft 0kts
02-Aug-20 10:58 34.200215 -118.358845 258 721ft 0kts
02-Aug-20 10:59 34.200105 -118.359058 208 721ft 4kts
02-Aug-20 11:00 34.198877 -118.360676 271 719ft 7kts
02-Aug-20 11:01 34.199080 -118.364749 274 724ft 14kts
02-Aug-20 11:02 34.199121 -118.368262 272 727ft 10kts
02-Aug-20 11:03 34.198862 -118.368990 187 727ft 0kts
02-Aug-20 11:04 34.198862 -118.368990 187 727ft 0kts
02-Aug-20 11:05 34.198862 -118.368990 187 727ft 0kts
02-Aug-20 11:06 34.197132 -118.356711 100 1044ft 76kts
02-Aug-20 11:07 34.183718 -118.358308 225 2057ft 71kts
02-Aug-20 11:08 34.169663 -118.375354 224 2976ft 72kts
02-Aug-20 11:09 34.154358 -118.394189 237 3779ft 84kts
02-Aug-20 11:10 34.167955 -118.410048 351 4616ft 85kts
02-Aug-20 11:11 34.191574 -118.414199 351 5409ft 86kts
02-Aug-20 11:12 34.215533 -118.418396 351 6154ft 87kts
02-Aug-20 11:13 34.239716 -118.422625 351 6852ft 88kts
02-Aug-20 11:14 34.263992 -118.428281 346 7509ft 89kts
02-Aug-20 11:15 34.288326 -118.434980 347 8126ft 90kts
02-Aug-20 11:16 34.312939 -118.441677 347 8707ft 91kts
02-Aug-20 11:17 34.337734 -118.448398 347 9252ft 92kts
02-Aug-20 11:18 34.362716 -118.455163 347 9765ft 92kts
02-Aug-20 11:19 34.386059 -118.450512 46 10245ft 93kts
02-Aug-20 11:20 34.403149 -118.426842 50 10704ft 93kts
02-Aug-20 11:21 34.419842 -118.401513 52 10958ft 110kts
02-Aug-20 11:22 34.439976 -118.369839 52 10955ft 123kts
02-Aug-20 11:23 34.461093 -118.336304 52 10954ft 127kts
02-Aug-20 11:24 34.482619 -118.302026 52 10954ft 127kts
02-Aug-20 11:25 34.504122 -118.267738 52 10946ft 128kts
02-Aug-20 11:26 34.525940 -118.232893 52 10899ft 128kts
02-Aug-20 11:27 34.547479 -118.198453 52 10899ft 128kts
02-Aug-20 11:28 34.569044 -118.163940 52 10899ft 128kts
02-Aug-20 11:29 34.590445 -118.129654 52 10899ft 128kts
02-Aug-20 11:30 34.611962 -118.095148 52 10899ft 128kts
02-Aug-20 11:31 34.630504 -118.058854 77 10899ft 127kts
02-Aug-20 11:32 34.636374 -118.016336 81 10899ft 128kts
02-Aug-20 11:33 34.641318 -117.973516 82 10899ft 128kts
02-Aug-20 11:34 34.646056 -117.930678 82 10899ft 128kts
02-Aug-20 11:35 34.650742 -117.887784 82 10899ft 128kts
02-Aug-20 11:36 34.655397 -117.844952 82 10899ft 128kts
02-Aug-20 11:37 34.660026 -117.802196 82 10899ft 128kts
02-Aug-20 11:38 34.665692 -117.759475 73 10899ft 128kts
02-Aug-20 11:39 34.675963 -117.718152 72 10899ft 128kts
02-Aug-20 11:40 34.686505 -117.676823 72 10899ft 128kts
02-Aug-20 11:41 34.697099 -117.635442 72 10899ft 128kts
02-Aug-20 11:42 34.707658 -117.594180 72 10899ft 128kts
02-Aug-20 11:43 34.718216 -117.552870 72 10899ft 128kts
02-Aug-20 11:44 34.728774 -117.511492 72 10899ft 128kts
02-Aug-20 11:45 34.739317 -117.470113 72 10899ft 128kts
02-Aug-20 11:46 34.749823 -117.428810 72 10899ft 128kts
02-Aug-20 11:47 34.760336 -117.387417 72 10899ft 128kts
02-Aug-20 11:48 34.770837 -117.346007 72 10899ft 128kts
02-Aug-20 11:49 34.781347 -117.304496 72 10899ft 128kts
02-Aug-20 11:50 34.791797 -117.263159 72 10899ft 128kts
02-Aug-20 11:51 34.802276 -117.221634 72 10899ft 128kts
02-Aug-20 11:53 34.812705 -117.180239 72 10899ft 128kts
02-Aug-20 11:54 34.823151 -117.138713 72 10899ft 128kts
02-Aug-20 11:55 34.833598 -117.097117 72 10899ft 128kts
02-Aug-20 11:56 34.844023 -117.055543 72 10899ft 128kts
02-Aug-20 11:57 34.854431 -117.013968 72 10899ft 128kts
02-Aug-20 11:58 34.864820 -116.972402 72 10899ft 128kts
02-Aug-20 11:59 34.874953 -116.931809 72 10991ft 126kts
02-Aug-20 12:00 34.885331 -116.890169 72 10990ft 129kts
02-Aug-20 12:01 34.895771 -116.848195 72 10990ft 129kts
02-Aug-20 12:02 34.906197 -116.806210 72 10990ft 129kts
02-Aug-20 12:03 34.916627 -116.764140 72 10990ft 129kts
02-Aug-20 12:04 34.927043 -116.722057 72 10990ft 129kts
02-Aug-20 12:05 34.937448 -116.679952 72 10990ft 129kts
02-Aug-20 12:06 34.947860 -116.637745 72 10990ft 129kts
02-Aug-20 12:07 34.958226 -116.595658 72 10990ft 129kts
02-Aug-20 12:08 34.972838 -116.555591 61 10990ft 129kts
02-Aug-20 12:09 34.989905 -116.516801 61 10990ft 129kts
02-Aug-20 12:10 35.007026 -116.478187 61 10990ft 129kts
02-Aug-20 12:10 35.021358 -116.445893 61 10990ft 129kts
02-Aug-20 12:12 35.041365 -116.400779 61 10990ft 129kts
02-Aug-20 12:13 35.058588 -116.361904 61 10990ft 129kts
02-Aug-20 12:13 35.072885 -116.329605 61 10990ft 129kts
02-Aug-20 12:14 35.090021 -116.290853 61 10990ft 129kts
02-Aug-20 12:15 35.107213 -116.251924 61 10990ft 129kts
02-Aug-20 12:16 35.124356 -116.213059 61 10990ft 129kts
02-Aug-20 12:17 35.141460 -116.174241 61 10990ft 129kts
02-Aug-20 12:18 35.158578 -116.135348 61 10990ft 129kts
02-Aug-20 12:19 35.175612 -116.096602 61 10990ft 129kts
02-Aug-20 12:20 35.192728 -116.057621 61 10990ft 129kts
02-Aug-20 12:21 35.209739 -116.018838 61 10990ft 129kts
02-Aug-20 12:22 35.226809 -115.979875 61 10990ft 129kts
02-Aug-20 12:23 35.243844 -115.940947 61 10990ft 129kts
02-Aug-20 12:24 35.260891 -115.901947 61 10990ft 129kts
02-Aug-20 12:25 35.277866 -115.863066 61 10990ft 130kts
02-Aug-20 12:26 35.294880 -115.824050 61 10990ft 130kts
02-Aug-20 12:27 35.312716 -115.785661 50 10991ft 129kts
02-Aug-20 12:28 35.336749 -115.752661 47 10990ft 130kts
02-Aug-20 12:29 35.361134 -115.720050 47 10990ft 130kts
02-Aug-20 12:30 35.386721 -115.685868 47 10585ft 142kts
02-Aug-20 12:31 35.413281 -115.650349 47 10025ft 139kts
02-Aug-20 12:32 35.438367 -115.616859 47 10009ft 130kts
02-Aug-20 12:33 35.462867 -115.584106 47 10009ft 130kts
02-Aug-20 12:34 35.487340 -115.551341 47 10009ft 130kts
02-Aug-20 12:35 35.511848 -115.518497 47 10009ft 130kts
02-Aug-20 12:36 35.536350 -115.485649 47 10009ft 130kts
02-Aug-20 12:37 35.560887 -115.452722 47 10009ft 130kts
02-Aug-20 12:38 35.585298 -115.419933 47 10009ft 130kts
02-Aug-20 12:39 35.609836 -115.386941 47 10009ft 130kts
02-Aug-20 12:40 35.634281 -115.354013 47 10009ft 130kts
02-Aug-20 12:41 35.658795 -115.320958 47 10009ft 130kts
02-Aug-20 12:42 35.683394 -115.287787 47 9890ft 138kts
02-Aug-20 12:43 35.710065 -115.251770 47 9392ft 143kts
02-Aug-20 12:44 35.736708 -115.215765 47 9010ft 137kts
02-Aug-20 12:45 35.761735 -115.181921 47 9008ft 131kts
02-Aug-20 12:46 35.786784 -115.149424 47 9009ft 130kts
02-Aug-20 12:47 35.811266 -115.116260 47 9009ft 130kts
02-Aug-20 12:48 35.836034 -115.083733 29 9004ft 131kts
02-Aug-20 12:49 35.874191 -115.079892 1 8583ft 143kts
02-Aug-20 12:50 35.913323 -115.078264 1 8078ft 134kts
02-Aug-20 12:51 35.947609 -115.076825 2 7723ft 116kts
02-Aug-20 12:52 35.979959 -115.075452 2 6478ft 114kts
02-Aug-20 12:53 36.010262 -115.076831 357 4870ft 108kts
02-Aug-20 12:54 36.038932 -115.083121 328 3291ft 104kts
02-Aug-20 12:55 36.060490 -115.097391 323 2718ft 79kts
02-Aug-20 12:56 36.073218 -115.119600 283 2219ft 81kts
02-Aug-20 12:57 36.073630 -115.134979 273 2067ft 43kts
02-Aug-20 12:58 36.074739 -115.145940 302 2099ft 0kts
02-Aug-20 12:59 36.074739 -115.145940 302 2099ft 0kts
02-Aug-20 13:00 36.075013 -115.149066 273 2110ft 19kts
02-Aug-20 13:01 36.075003 -115.156714 270 2140ft 24kts
02-Aug-20 13:02 36.075000 -115.164248 269 2166ft 11kts
02-Aug-20 13:03 36.074893 -115.168826 295 2180ft 14kts
02-Aug-20 13:04 36.077699 -115.171250 2 2179ft 20kts
02-Aug-20 13:05 36.081852 -115.170146 341 2166ft 6kts
02-Aug-20 13:06 36.081947 -115.170186 341 2166ft 0kts

Navigation Log

Ident Type
Flight plan parsing failed, navigation log unavailable